sensor_id;sensor_type;location;lat;lon;timestamp;temperature;humidity
1766;DHT22;880;52.452;8.656;2022-08-21T00:00:26;17.50;99.90
1766;DHT22;880;52.452;8.656;2022-08-21T00:02:59;17.40;99.90
1766;DHT22;880;52.452;8.656;2022-08-21T00:05:33;17.40;99.90
1766;DHT22;880;52.452;8.656;2022-08-21T00:08:02;17.40;99.90
1766;DHT22;880;52.452;8.656;2022-08-21T00:10:30;17.40;99.90
1766;DHT22;880;52.452;8.656;2022-08-21T00:12:57;17.40;99.90
1766;DHT22;880;52.452;8.656;2022-08-21T00:15:27;17.30;99.90
1766;DHT22;880;52.452;8.656;2022-08-21T00:17:56;17.20;99.90
1766;DHT22;880;52.452;8.656;2022-08-21T00:20:23;17.10;99.90
1766;DHT22;880;52.452;8.656;2022-08-21T00:22:51;17.10;99.90
1766;DHT22;880;52.452;8.656;2022-08-21T00:25:19;17.00;99.90
1766;DHT22;880;52.452;8.656;2022-08-21T00:27:51;17.10;99.90
1766;DHT22;880;52.452;8.656;2022-08-21T00:30:20;17.10;99.90
1766;DHT22;880;52.452;8.656;2022-08-21T00:32:49;17.10;99.90
1766;DHT22;880;52.452;8.656;2022-08-21T00:35:18;17.10;99.90
1766;DHT22;880;52.452;8.656;2022-08-21T00:37:47;17.00;99.90
1766;DHT22;880;52.452;8.656;2022-08-21T00:40:19;16.90;99.90
1766;DHT22;880;52.452;8.656;2022-08-21T00:42:49;16.90;99.90
1766;DHT22;880;52.452;8.656;2022-08-21T00:45:21;16.90;99.90
1766;DHT22;880;52.452;8.656;2022-08-21T00:47:50;16.90;99.90
1766;DHT22;880;52.452;8.656;2022-08-21T00:50:19;16.90;99.90
1766;DHT22;880;52.452;8.656;2022-08-21T00:52:50;17.00;99.90
1766;DHT22;880;52.452;8.656;2022-08-21T00:55:18;16.90;99.90
1766;DHT22;880;52.452;8.656;2022-08-21T00:57:52;16.90;99.90
1766;DHT22;880;52.452;8.656;2022-08-21T01:00:26;16.80;99.90
1766;DHT22;880;52.452;8.656;2022-08-21T01:03:01;16.80;99.90
1766;DHT22;880;52.452;8.656;2022-08-21T01:05:35;16.90;99.90
1766;DHT22;880;52.452;8.656;2022-08-21T01:08:03;16.90;99.90
1766;DHT22;880;52.452;8.656;2022-08-21T01:10:32;16.90;99.90
1766;DHT22;880;52.452;8.656;2022-08-21T01:13:00;16.90;99.90
1766;DHT22;880;52.452;8.656;2022-08-21T01:15:32;16.70;99.90
1766;DHT22;880;52.452;8.656;2022-08-21T01:18:06;16.60;99.90
1766;DHT22;880;52.452;8.656;2022-08-21T01:20:36;16.60;99.90
1766;DHT22;880;52.452;8.656;2022-08-21T01:23:05;16.60;99.90
1766;DHT22;880;52.452;8.656;2022-08-21T01:25:34;16.60;99.90
1766;DHT22;880;52.452;8.656;2022-08-21T01:28:06;16.60;99.90
1766;DHT22;880;52.452;8.656;2022-08-21T01:30:38;16.60;99.90
1766;DHT22;880;52.452;8.656;2022-08-21T01:33:06;16.60;99.90
1766;DHT22;880;52.452;8.656;2022-08-21T01:35:33;16.60;99.90
1766;DHT22;880;52.452;8.656;2022-08-21T01:38:00;16.50;99.90
1766;DHT22;880;52.452;8.656;2022-08-21T01:40:27;16.40;99.90
1766;DHT22;880;52.452;8.656;2022-08-21T01:42:54;16.30;99.90
1766;DHT22;880;52.452;8.656;2022-08-21T01:45:22;16.20;99.90
1766;DHT22;880;52.452;8.656;2022-08-21T01:47:48;16.10;99.90
1766;DHT22;880;52.452;8.656;2022-08-21T01:50:18;16.10;99.90
1766;DHT22;880;52.452;8.656;2022-08-21T01:52:47;16.20;99.90
1766;DHT22;880;52.452;8.656;2022-08-21T01:55:15;16.10;99.90
1766;DHT22;880;52.452;8.656;2022-08-21T01:57:43;16.10;99.90
1766;DHT22;880;52.452;8.656;2022-08-21T02:00:13;16.10;99.90
1766;DHT22;880;52.452;8.656;2022-08-21T02:02:42;16.10;99.90
1766;DHT22;880;52.452;8.656;2022-08-21T02:05:11;16.00;99.90
1766;DHT22;880;52.452;8.656;2022-08-21T02:07:51;16.00;99.90
1766;DHT22;880;52.452;8.656;2022-08-21T02:10:24;16.10;99.90
1766;DHT22;880;52.452;8.656;2022-08-21T02:12:54;16.20;99.90
1766;DHT22;880;52.452;8.656;2022-08-21T02:15:23;16.10;99.90
1766;DHT22;880;52.452;8.656;2022-08-21T02:17:53;16.10;99.90
1766;DHT22;880;52.452;8.656;2022-08-21T02:20:23;16.00;99.90
1766;DHT22;880;52.452;8.656;2022-08-21T02:22:53;16.00;99.90
1766;DHT22;880;52.452;8.656;2022-08-21T02:25:22;16.00;99.90
1766;DHT22;880;52.452;8.656;2022-08-21T02:27:50;15.90;99.90
1766;DHT22;880;52.452;8.656;2022-08-21T02:30:25;16.00;99.90
1766;DHT22;880;52.452;8.656;2022-08-21T02:32:55;16.00;99.90
1766;DHT22;880;52.452;8.656;2022-08-21T02:35:23;16.10;99.90
1766;DHT22;880;52.452;8.656;2022-08-21T02:37:53;16.20;99.90
1766;DHT22;880;52.452;8.656;2022-08-21T02:40:28;16.30;99.90
1766;DHT22;880;52.452;8.656;2022-08-21T02:42:58;16.30;99.90
1766;DHT22;880;52.452;8.656;2022-08-21T02:45:25;16.30;99.90
1766;DHT22;880;52.452;8.656;2022-08-21T02:47:57;16.40;99.90
1766;DHT22;880;52.452;8.656;2022-08-21T02:50:29;16.40;99.90
1766;DHT22;880;52.452;8.656;2022-08-21T02:52:58;16.40;99.90
1766;DHT22;880;52.452;8.656;2022-08-21T02:55:27;16.30;99.90
1766;DHT22;880;52.452;8.656;2022-08-21T02:57:56;16.30;99.90
1766;DHT22;880;52.452;8.656;2022-08-21T03:00:26;16.30;99.90
1766;DHT22;880;52.452;8.656;2022-08-21T03:02:55;16.30;99.90
1766;DHT22;880;52.452;8.656;2022-08-21T03:05:24;16.30;99.90
1766;DHT22;880;52.452;8.656;2022-08-21T03:07:53;16.30;99.90
1766;DHT22;880;52.452;8.656;2022-08-21T03:10:21;16.30;99.90
1766;DHT22;880;52.452;8.656;2022-08-21T03:12:48;16.30;99.90
1766;DHT22;880;52.452;8.656;2022-08-21T03:15:18;16.30;99.90
1766;DHT22;880;52.452;8.656;2022-08-21T03:17:47;16.30;99.90
1766;DHT22;880;52.452;8.656;2022-08-21T03:20:21;16.30;99.90
1766;DHT22;880;52.452;8.656;2022-08-21T03:22:51;16.20;99.90
1766;DHT22;880;52.452;8.656;2022-08-21T03:25:23;16.20;99.90
1766;DHT22;880;52.452;8.656;2022-08-21T03:28:12;16.10;99.90
1766;DHT22;880;52.452;8.656;2022-08-21T03:30:45;16.00;99.90
1766;DHT22;880;52.452;8.656;2022-08-21T03:33:15;15.90;99.90
1766;DHT22;880;52.452;8.656;2022-08-21T03:35:43;15.80;99.90
1766;DHT22;880;52.452;8.656;2022-08-21T03:38:12;15.80;99.90
1766;DHT22;880;52.452;8.656;2022-08-21T03:40:41;15.70;99.90
1766;DHT22;880;52.452;8.656;2022-08-21T03:43:08;15.70;99.90
1766;DHT22;880;52.452;8.656;2022-08-21T03:45:37;15.80;99.90
1766;DHT22;880;52.452;8.656;2022-08-21T03:48:06;15.80;99.90
1766;DHT22;880;52.452;8.656;2022-08-21T03:50:37;15.80;99.90
1766;DHT22;880;52.452;8.656;2022-08-21T03:53:08;15.80;99.90
1766;DHT22;880;52.452;8.656;2022-08-21T03:55:44;15.80;99.90
1766;DHT22;880;52.452;8.656;2022-08-21T03:58:14;15.70;99.90
1766;DHT22;880;52.452;8.656;2022-08-21T04:00:47;15.70;99.90
1766;DHT22;880;52.452;8.656;2022-08-21T04:03:17;15.70;99.90
1766;DHT22;880;52.452;8.656;2022-08-21T04:05:45;15.70;99.90
1766;DHT22;880;52.452;8.656;2022-08-21T04:08:14;15.60;99.90
1766;DHT22;880;52.452;8.656;2022-08-21T04:10:44;15.60;99.90
1766;DHT22;880;52.452;8.656;2022-08-21T04:13:13;15.70;99.90
1766;DHT22;880;52.452;8.656;2022-08-21T04:15:41;15.60;99.90
1766;DHT22;880;52.452;8.656;2022-08-21T04:18:09;15.60;99.90
1766;DHT22;880;52.452;8.656;2022-08-21T04:20:37;15.70;99.90
1766;DHT22;880;52.452;8.656;2022-08-21T04:23:04;15.70;99.90
1766;DHT22;880;52.452;8.656;2022-08-21T04:25:31;15.70;99.90
1766;DHT22;880;52.452;8.656;2022-08-21T04:27:58;15.70;99.90
1766;DHT22;880;52.452;8.656;2022-08-21T04:30:25;15.70;99.90
1766;DHT22;880;52.452;8.656;2022-08-21T04:32:54;15.70;99.90
1766;DHT22;880;52.452;8.656;2022-08-21T04:35:24;15.70;99.90
1766;DHT22;880;52.452;8.656;2022-08-21T04:37:52;15.70;99.90
1766;DHT22;880;52.452;8.656;2022-08-21T04:40:20;15.80;99.90
1766;DHT22;880;52.452;8.656;2022-08-21T04:42:54;15.70;99.90
1766;DHT22;880;52.452;8.656;2022-08-21T04:45:45;15.70;99.90
1766;DHT22;880;52.452;8.656;2022-08-21T04:48:16;15.60;99.90
1766;DHT22;880;52.452;8.656;2022-08-21T04:50:52;15.60;99.90
1766;DHT22;880;52.452;8.656;2022-08-21T04:56:18;15.60;99.90
1766;DHT22;880;52.452;8.656;2022-08-21T04:58:49;15.70;99.90
1766;DHT22;880;52.452;8.656;2022-08-21T05:01:20;15.70;99.90
1766;DHT22;880;52.452;8.656;2022-08-21T05:03:51;15.80;99.90
1766;DHT22;880;52.452;8.656;2022-08-21T05:06:23;15.90;99.90
1766;DHT22;880;52.452;8.656;2022-08-21T05:08:52;16.00;99.90
1766;DHT22;880;52.452;8.656;2022-08-21T05:11:29;16.00;99.90
1766;DHT22;880;52.452;8.656;2022-08-21T05:13:57;16.00;99.90
1766;DHT22;880;52.452;8.656;2022-08-21T05:16:25;16.10;99.90
1766;DHT22;880;52.452;8.656;2022-08-21T05:19:06;16.10;99.90
1766;DHT22;880;52.452;8.656;2022-08-21T05:21:39;16.20;99.90
1766;DHT22;880;52.452;8.656;2022-08-21T05:24:08;16.30;99.90
1766;DHT22;880;52.452;8.656;2022-08-21T05:26:36;16.40;99.90
1766;DHT22;880;52.452;8.656;2022-08-21T05:29:13;16.40;99.90
1766;DHT22;880;52.452;8.656;2022-08-21T05:31:42;16.50;99.90
1766;DHT22;880;52.452;8.656;2022-08-21T05:34:11;16.60;99.90
1766;DHT22;880;52.452;8.656;2022-08-21T05:36:41;16.60;99.90
1766;DHT22;880;52.452;8.656;2022-08-21T05:39:08;16.60;99.90
1766;DHT22;880;52.452;8.656;2022-08-21T05:41:35;16.70;99.90
1766;DHT22;880;52.452;8.656;2022-08-21T05:44:02;16.60;99.90
1766;DHT22;880;52.452;8.656;2022-08-21T05:46:35;16.70;99.90
1766;DHT22;880;52.452;8.656;2022-08-21T05:49:03;16.80;99.90
1766;DHT22;880;52.452;8.656;2022-08-21T05:51:30;16.90;99.90
1766;DHT22;880;52.452;8.656;2022-08-21T05:53:57;17.00;99.90
1766;DHT22;880;52.452;8.656;2022-08-21T05:56:24;17.10;99.90
1766;DHT22;880;52.452;8.656;2022-08-21T05:58:51;17.20;99.90
1766;DHT22;880;52.452;8.656;2022-08-21T06:01:18;17.40;99.90
1766;DHT22;880;52.452;8.656;2022-08-21T06:03:46;17.60;99.90
1766;DHT22;880;52.452;8.656;2022-08-21T06:06:13;17.80;99.90
1766;DHT22;880;52.452;8.656;2022-08-21T06:08:40;18.10;99.90
1766;DHT22;880;52.452;8.656;2022-08-21T06:11:07;18.20;99.90
1766;DHT22;880;52.452;8.656;2022-08-21T06:13:36;18.30;99.90
1766;DHT22;880;52.452;8.656;2022-08-21T06:16:09;18.50;99.90
1766;DHT22;880;52.452;8.656;2022-08-21T06:18:43;18.60;99.90
1766;DHT22;880;52.452;8.656;2022-08-21T06:21:12;18.60;99.90
1766;DHT22;880;52.452;8.656;2022-08-21T06:23:41;18.60;99.90
1766;DHT22;880;52.452;8.656;2022-08-21T06:26:09;18.70;99.90
1766;DHT22;880;52.452;8.656;2022-08-21T06:28:37;18.80;99.90
1766;DHT22;880;52.452;8.656;2022-08-21T06:31:18;18.90;99.90
1766;DHT22;880;52.452;8.656;2022-08-21T06:33:47;19.00;99.90
1766;DHT22;880;52.452;8.656;2022-08-21T06:36:15;19.10;99.90
1766;DHT22;880;52.452;8.656;2022-08-21T06:38:42;19.20;99.90
1766;DHT22;880;52.452;8.656;2022-08-21T06:41:19;19.30;99.90
1766;DHT22;880;52.452;8.656;2022-08-21T06:43:52;19.40;99.90
1766;DHT22;880;52.452;8.656;2022-08-21T06:46:19;19.70;99.90
1766;DHT22;880;52.452;8.656;2022-08-21T06:48:47;19.80;99.90
1766;DHT22;880;52.452;8.656;2022-08-21T06:51:14;19.90;99.90
1766;DHT22;880;52.452;8.656;2022-08-21T06:53:41;19.80;99.90
1766;DHT22;880;52.452;8.656;2022-08-21T06:56:08;20.00;99.90
1766;DHT22;880;52.452;8.656;2022-08-21T06:58:35;20.20;99.90
1766;DHT22;880;52.452;8.656;2022-08-21T07:01:03;20.30;99.90
1766;DHT22;880;52.452;8.656;2022-08-21T07:03:34;20.40;99.90
1766;DHT22;880;52.452;8.656;2022-08-21T07:06:05;20.50;99.90
1766;DHT22;880;52.452;8.656;2022-08-21T07:08:33;20.60;99.90
1766;DHT22;880;52.452;8.656;2022-08-21T07:11:04;20.70;99.90
1766;DHT22;880;52.452;8.656;2022-08-21T07:13:35;20.90;99.90
1766;DHT22;880;52.452;8.656;2022-08-21T07:16:02;21.00;99.90
1766;DHT22;880;52.452;8.656;2022-08-21T07:18:30;21.10;99.90
1766;DHT22;880;52.452;8.656;2022-08-21T07:20:57;21.10;99.90
1766;DHT22;880;52.452;8.656;2022-08-21T07:23:28;21.10;99.90
1766;DHT22;880;52.452;8.656;2022-08-21T07:25:58;21.00;99.90
1766;DHT22;880;52.452;8.656;2022-08-21T07:28:30;21.10;99.90
1766;DHT22;880;52.452;8.656;2022-08-21T07:30:59;21.20;99.90
1766;DHT22;880;52.452;8.656;2022-08-21T07:33:29;21.20;99.90
1766;DHT22;880;52.452;8.656;2022-08-21T07:35:58;21.20;99.90
1766;DHT22;880;52.452;8.656;2022-08-21T07:38:25;21.30;99.90
1766;DHT22;880;52.452;8.656;2022-08-21T07:40:55;21.30;99.90
1766;DHT22;880;52.452;8.656;2022-08-21T07:43:25;21.50;99.90
1766;DHT22;880;52.452;8.656;2022-08-21T07:45:53;21.50;99.90
1766;DHT22;880;52.452;8.656;2022-08-21T07:48:21;21.70;99.90
1766;DHT22;880;52.452;8.656;2022-08-21T07:50:49;22.00;99.90
1766;DHT22;880;52.452;8.656;2022-08-21T07:53:16;22.20;99.90
1766;DHT22;880;52.452;8.656;2022-08-21T07:55:44;22.20;99.90
1766;DHT22;880;52.452;8.656;2022-08-21T07:58:10;22.10;99.90
1766;DHT22;880;52.452;8.656;2022-08-21T08:00:38;22.10;99.90
1766;DHT22;880;52.452;8.656;2022-08-21T08:03:06;22.20;99.90
1766;DHT22;880;52.452;8.656;2022-08-21T08:05:33;22.60;99.90
1766;DHT22;880;52.452;8.656;2022-08-21T08:08:03;22.80;99.90
1766;DHT22;880;52.452;8.656;2022-08-21T08:10:30;22.60;99.90
1766;DHT22;880;52.452;8.656;2022-08-21T08:12:57;22.60;99.90
1766;DHT22;880;52.452;8.656;2022-08-21T08:15:26;22.80;99.90
1766;DHT22;880;52.452;8.656;2022-08-21T08:17:54;22.80;99.90
1766;DHT22;880;52.452;8.656;2022-08-21T08:20:23;22.80;99.90
1766;DHT22;880;52.452;8.656;2022-08-21T08:22:52;22.90;99.90
1766;DHT22;880;52.452;8.656;2022-08-21T08:25:21;22.90;99.90
1766;DHT22;880;52.452;8.656;2022-08-21T08:27:49;22.90;99.90
1766;DHT22;880;52.452;8.656;2022-08-21T08:30:18;23.10;99.90
1766;DHT22;880;52.452;8.656;2022-08-21T08:32:47;23.20;99.90
1766;DHT22;880;52.452;8.656;2022-08-21T08:35:14;23.20;99.90
1766;DHT22;880;52.452;8.656;2022-08-21T08:37:43;23.20;99.90
1766;DHT22;880;52.452;8.656;2022-08-21T08:40:25;23.30;99.90
1766;DHT22;880;52.452;8.656;2022-08-21T08:42:59;23.30;99.90
1766;DHT22;880;52.452;8.656;2022-08-21T08:45:37;23.60;99.90
1766;DHT22;880;52.452;8.656;2022-08-21T08:48:10;23.70;99.90
1766;DHT22;880;52.452;8.656;2022-08-21T08:50:47;23.60;99.90
1766;DHT22;880;52.452;8.656;2022-08-21T08:53:48;23.60;99.90
1766;DHT22;880;52.452;8.656;2022-08-21T08:56:21;23.60;99.90
1766;DHT22;880;52.452;8.656;2022-08-21T08:58:51;23.60;99.90
1766;DHT22;880;52.452;8.656;2022-08-21T09:01:20;23.60;99.90
1766;DHT22;880;52.452;8.656;2022-08-21T09:03:48;23.70;99.90
1766;DHT22;880;52.452;8.656;2022-08-21T09:06:34;24.00;99.90
1766;DHT22;880;52.452;8.656;2022-08-21T09:14:58;24.50;99.90
1766;DHT22;880;52.452;8.656;2022-08-21T09:23:55;24.40;99.00
1766;DHT22;880;52.452;8.656;2022-08-21T09:26:32;24.50;98.50
1766;DHT22;880;52.452;8.656;2022-08-21T09:29:11;24.50;97.70
1766;DHT22;880;52.452;8.656;2022-08-21T09:31:38;24.40;98.20
1766;DHT22;880;52.452;8.656;2022-08-21T09:34:11;24.60;97.80
1766;DHT22;880;52.452;8.656;2022-08-21T09:36:48;24.80;98.50
1766;DHT22;880;52.452;8.656;2022-08-21T09:39:32;24.90;97.90
1766;DHT22;880;52.452;8.656;2022-08-21T09:42:08;24.90;97.30
1766;DHT22;880;52.452;8.656;2022-08-21T09:44:39;24.80;96.70
1766;DHT22;880;52.452;8.656;2022-08-21T09:47:11;24.80;97.60
1766;DHT22;880;52.452;8.656;2022-08-21T09:49:42;25.10;97.10
1766;DHT22;880;52.452;8.656;2022-08-21T09:52:21;25.50;97.30
1766;DHT22;880;52.452;8.656;2022-08-21T09:54:52;25.70;96.60
1766;DHT22;880;52.452;8.656;2022-08-21T09:57:30;25.80;95.60
1766;DHT22;880;52.452;8.656;2022-08-21T10:00:26;25.60;93.70
1766;DHT22;880;52.452;8.656;2022-08-21T10:03:27;25.40;94.50
1766;DHT22;880;52.452;8.656;2022-08-21T10:08:25;25.80;92.90
1766;DHT22;880;52.452;8.656;2022-08-21T10:11:03;25.90;93.20
1766;DHT22;880;52.452;8.656;2022-08-21T10:14:19;26.20;93.90
1766;DHT22;880;52.452;8.656;2022-08-21T10:19:31;26.30;91.60
1766;DHT22;880;52.452;8.656;2022-08-21T10:25:21;26.20;92.20
1766;DHT22;880;52.452;8.656;2022-08-21T10:30:49;26.40;90.80
1766;DHT22;880;52.452;8.656;2022-08-21T10:36:36;26.40;92.70
1766;DHT22;880;52.452;8.656;2022-08-21T10:42:25;26.40;91.60
1766;DHT22;880;52.452;8.656;2022-08-21T10:45:09;26.40;92.20
1766;DHT22;880;52.452;8.656;2022-08-21T10:53:53;26.40;90.70
1766;DHT22;880;52.452;8.656;2022-08-21T10:56:24;26.60;91.00
1766;DHT22;880;52.452;8.656;2022-08-21T11:04:50;27.00;89.00
1766;DHT22;880;52.452;8.656;2022-08-21T11:10:05;26.50;89.60
1766;DHT22;880;52.452;8.656;2022-08-21T11:12:46;26.30;89.80
1766;DHT22;880;52.452;8.656;2022-08-21T11:15:47;26.40;88.00
1766;DHT22;880;52.452;8.656;2022-08-21T11:23:54;26.40;89.20
1766;DHT22;880;52.452;8.656;2022-08-21T11:26:38;26.70;89.60
1766;DHT22;880;52.452;8.656;2022-08-21T11:32:00;27.00;87.40
1766;DHT22;880;52.452;8.656;2022-08-21T11:34:49;27.00;84.20
1766;DHT22;880;52.452;8.656;2022-08-21T11:41:11;26.90;86.50
1766;DHT22;880;52.452;8.656;2022-08-21T11:53:01;26.10;88.30
1766;DHT22;880;52.452;8.656;2022-08-21T11:55:59;26.10;88.90
1766;DHT22;880;52.452;8.656;2022-08-21T11:58:46;26.10;90.00
1766;DHT22;880;52.452;8.656;2022-08-21T12:01:28;26.40;90.20
1766;DHT22;880;52.452;8.656;2022-08-21T12:04:02;26.70;90.40
1766;DHT22;880;52.452;8.656;2022-08-21T12:06:40;27.10;88.70
1766;DHT22;880;52.452;8.656;2022-08-21T12:12:22;27.60;85.80
1766;DHT22;880;52.452;8.656;2022-08-21T12:20:44;27.60;83.70
1766;DHT22;880;52.452;8.656;2022-08-21T12:23:48;27.40;83.10
1766;DHT22;880;52.452;8.656;2022-08-21T12:26:29;27.50;83.60
1766;DHT22;880;52.452;8.656;2022-08-21T12:29:39;27.80;84.30
1766;DHT22;880;52.452;8.656;2022-08-21T12:34:39;28.40;84.40
1766;DHT22;880;52.452;8.656;2022-08-21T12:37:24;28.80;79.60
1766;DHT22;880;52.452;8.656;2022-08-21T12:39:59;28.60;78.20
1766;DHT22;880;52.452;8.656;2022-08-21T12:42:47;28.60;77.70
1766;DHT22;880;52.452;8.656;2022-08-21T12:45:37;28.60;77.30
1766;DHT22;880;52.452;8.656;2022-08-21T12:48:23;28.40;77.50
1766;DHT22;880;52.452;8.656;2022-08-21T12:53:51;28.90;77.20
1766;DHT22;880;52.452;8.656;2022-08-21T12:56:29;29.00;77.70
1766;DHT22;880;52.452;8.656;2022-08-21T12:59:05;28.90;76.60
1766;DHT22;880;52.452;8.656;2022-08-21T13:01:49;28.50;77.70
1766;DHT22;880;52.452;8.656;2022-08-21T13:04:28;28.30;79.60
1766;DHT22;880;52.452;8.656;2022-08-21T13:07:09;28.40;79.10
1766;DHT22;880;52.452;8.656;2022-08-21T13:09:53;28.50;80.50
1766;DHT22;880;52.452;8.656;2022-08-21T13:12:25;28.70;80.60
1766;DHT22;880;52.452;8.656;2022-08-21T13:15:02;28.60;76.20
1766;DHT22;880;52.452;8.656;2022-08-21T13:17:38;28.70;77.40
1766;DHT22;880;52.452;8.656;2022-08-21T13:20:28;28.60;76.20
1766;DHT22;880;52.452;8.656;2022-08-21T13:22:57;28.00;75.80
1766;DHT22;880;52.452;8.656;2022-08-21T13:25:28;27.70;77.30
1766;DHT22;880;52.452;8.656;2022-08-21T13:28:09;27.50;79.20
1766;DHT22;880;52.452;8.656;2022-08-21T13:30:49;27.40;80.00
1766;DHT22;880;52.452;8.656;2022-08-21T13:33:20;27.50;81.00
1766;DHT22;880;52.452;8.656;2022-08-21T13:36:07;27.70;82.10
1766;DHT22;880;52.452;8.656;2022-08-21T13:38:40;27.80;78.70
1766;DHT22;880;52.452;8.656;2022-08-21T13:41:27;27.70;80.60
1766;DHT22;880;52.452;8.656;2022-08-21T13:46:36;27.80;77.70
1766;DHT22;880;52.452;8.656;2022-08-21T13:49:05;27.80;78.10
1766;DHT22;880;52.452;8.656;2022-08-21T13:51:34;28.00;78.40
1766;DHT22;880;52.452;8.656;2022-08-21T13:54:24;28.40;77.20
1766;DHT22;880;52.452;8.656;2022-08-21T13:56:53;28.30;75.80
1766;DHT22;880;52.452;8.656;2022-08-21T14:02:16;28.60;77.70
1766;DHT22;880;52.452;8.656;2022-08-21T14:04:59;28.90;76.50
1766;DHT22;880;52.452;8.656;2022-08-21T14:07:35;28.90;74.00
1766;DHT22;880;52.452;8.656;2022-08-21T14:10:23;28.80;73.60
1766;DHT22;880;52.452;8.656;2022-08-21T14:12:55;28.30;73.90
1766;DHT22;880;52.452;8.656;2022-08-21T14:15:34;27.90;74.60
1766;DHT22;880;52.452;8.656;2022-08-21T14:18:21;27.50;75.20
1766;DHT22;880;52.452;8.656;2022-08-21T14:21:07;27.20;77.50
1766;DHT22;880;52.452;8.656;2022-08-21T14:23:35;27.10;78.20
1766;DHT22;880;52.452;8.656;2022-08-21T14:26:05;27.20;79.70
1766;DHT22;880;52.452;8.656;2022-08-21T14:28:37;27.50;80.30
1766;DHT22;880;52.452;8.656;2022-08-21T14:31:18;27.70;79.20
1766;DHT22;880;52.452;8.656;2022-08-21T14:33:48;27.80;77.70
1766;DHT22;880;52.452;8.656;2022-08-21T14:36:15;27.60;77.60
1766;DHT22;880;52.452;8.656;2022-08-21T14:38:42;27.70;77.60
1766;DHT22;880;52.452;8.656;2022-08-21T14:41:21;27.70;78.10
1766;DHT22;880;52.452;8.656;2022-08-21T14:43:51;27.80;78.30
1766;DHT22;880;52.452;8.656;2022-08-21T14:46:35;27.90;78.30
1766;DHT22;880;52.452;8.656;2022-08-21T14:49:23;28.10;77.90
1766;DHT22;880;52.452;8.656;2022-08-21T14:51:54;28.30;77.50
1766;DHT22;880;52.452;8.656;2022-08-21T14:54:30;28.50;77.40
1766;DHT22;880;52.452;8.656;2022-08-21T14:57:02;28.60;76.00
1766;DHT22;880;52.452;8.656;2022-08-21T14:59:32;28.50;76.30
1766;DHT22;880;52.452;8.656;2022-08-21T15:02:00;28.60;75.70
1766;DHT22;880;52.452;8.656;2022-08-21T15:04:27;28.70;74.60
1766;DHT22;880;52.452;8.656;2022-08-21T15:06:54;28.70;73.30
1766;DHT22;880;52.452;8.656;2022-08-21T15:09:22;28.70;72.20
1766;DHT22;880;52.452;8.656;2022-08-21T15:11:49;28.60;71.50
1766;DHT22;880;52.452;8.656;2022-08-21T15:14:21;28.30;71.00
1766;DHT22;880;52.452;8.656;2022-08-21T15:16:51;27.90;71.60
1766;DHT22;880;52.452;8.656;2022-08-21T15:19:18;27.60;73.20
1766;DHT22;880;52.452;8.656;2022-08-21T15:21:46;27.60;73.80
1766;DHT22;880;52.452;8.656;2022-08-21T15:24:13;27.70;73.00
1766;DHT22;880;52.452;8.656;2022-08-21T15:26:40;27.60;73.60
1766;DHT22;880;52.452;8.656;2022-08-21T15:29:07;27.50;72.80
1766;DHT22;880;52.452;8.656;2022-08-21T15:31:36;27.50;73.30
1766;DHT22;880;52.452;8.656;2022-08-21T15:34:03;27.50;71.40
1766;DHT22;880;52.452;8.656;2022-08-21T15:36:30;27.40;71.70
1766;DHT22;880;52.452;8.656;2022-08-21T15:38:57;27.40;73.20
1766;DHT22;880;52.452;8.656;2022-08-21T15:41:24;27.50;71.90
1766;DHT22;880;52.452;8.656;2022-08-21T15:43:52;27.50;72.60
1766;DHT22;880;52.452;8.656;2022-08-21T15:46:20;27.60;71.70
1766;DHT22;880;52.452;8.656;2022-08-21T15:48:47;27.70;72.30
1766;DHT22;880;52.452;8.656;2022-08-21T15:51:16;27.80;71.20
1766;DHT22;880;52.452;8.656;2022-08-21T15:53:44;27.80;71.90
1766;DHT22;880;52.452;8.656;2022-08-21T15:56:21;27.80;70.20
1766;DHT22;880;52.452;8.656;2022-08-21T15:58:59;27.80;70.80
1766;DHT22;880;52.452;8.656;2022-08-21T16:01:28;27.50;69.80
1766;DHT22;880;52.452;8.656;2022-08-21T16:04:11;27.40;71.50
1766;DHT22;880;52.452;8.656;2022-08-21T16:06:44;27.20;70.60
1766;DHT22;880;52.452;8.656;2022-08-21T16:09:22;27.10;70.70
1766;DHT22;880;52.452;8.656;2022-08-21T16:11:50;27.00;71.60
1766;DHT22;880;52.452;8.656;2022-08-21T16:14:17;26.90;71.80
1766;DHT22;880;52.452;8.656;2022-08-21T16:16:45;26.80;72.00
1766;DHT22;880;52.452;8.656;2022-08-21T16:19:13;26.80;72.60
1766;DHT22;880;52.452;8.656;2022-08-21T16:21:40;26.70;73.10
1766;DHT22;880;52.452;8.656;2022-08-21T16:24:07;26.60;73.70
1766;DHT22;880;52.452;8.656;2022-08-21T16:26:34;26.60;74.60
1766;DHT22;880;52.452;8.656;2022-08-21T16:29:02;26.60;74.30
1766;DHT22;880;52.452;8.656;2022-08-21T16:31:32;26.50;74.30
1766;DHT22;880;52.452;8.656;2022-08-21T16:33:59;26.50;75.10
1766;DHT22;880;52.452;8.656;2022-08-21T16:36:27;26.50;75.00
1766;DHT22;880;52.452;8.656;2022-08-21T16:38:55;26.50;75.20
1766;DHT22;880;52.452;8.656;2022-08-21T16:41:30;26.40;75.80
1766;DHT22;880;52.452;8.656;2022-08-21T16:44:00;26.40;76.60
1766;DHT22;880;52.452;8.656;2022-08-21T16:46:30;26.40;77.10
1766;DHT22;880;52.452;8.656;2022-08-21T16:49:02;26.40;76.10
1766;DHT22;880;52.452;8.656;2022-08-21T16:51:29;26.30;76.50
1766;DHT22;880;52.452;8.656;2022-08-21T16:53:57;26.40;76.70
1766;DHT22;880;52.452;8.656;2022-08-21T16:56:25;26.30;76.10
1766;DHT22;880;52.452;8.656;2022-08-21T16:58:54;26.20;76.30
1766;DHT22;880;52.452;8.656;2022-08-21T17:01:25;26.20;76.70
1766;DHT22;880;52.452;8.656;2022-08-21T17:03:55;26.20;77.20
1766;DHT22;880;52.452;8.656;2022-08-21T17:06:22;26.30;76.20
1766;DHT22;880;52.452;8.656;2022-08-21T17:08:55;26.20;76.70
1766;DHT22;880;52.452;8.656;2022-08-21T17:14:12;26.20;78.40
1766;DHT22;880;52.452;8.656;2022-08-21T17:16:45;26.30;76.40
1766;DHT22;880;52.452;8.656;2022-08-21T17:19:16;26.10;77.20
1766;DHT22;880;52.452;8.656;2022-08-21T17:21:44;26.10;77.10
1766;DHT22;880;52.452;8.656;2022-08-21T17:24:11;26.00;77.30
1766;DHT22;880;52.452;8.656;2022-08-21T17:26:43;26.00;77.60
1766;DHT22;880;52.452;8.656;2022-08-21T17:29:12;25.90;77.80
1766;DHT22;880;52.452;8.656;2022-08-21T17:31:42;25.80;77.30
1766;DHT22;880;52.452;8.656;2022-08-21T17:34:10;25.80;78.20
1766;DHT22;880;52.452;8.656;2022-08-21T17:36:38;25.80;78.50
1766;DHT22;880;52.452;8.656;2022-08-21T17:39:05;25.90;78.20
1766;DHT22;880;52.452;8.656;2022-08-21T17:41:32;25.90;78.40
1766;DHT22;880;52.452;8.656;2022-08-21T17:44:03;25.80;78.50
1766;DHT22;880;52.452;8.656;2022-08-21T17:46:32;25.80;78.40
1766;DHT22;880;52.452;8.656;2022-08-21T17:48:59;25.70;78.60
1766;DHT22;880;52.452;8.656;2022-08-21T17:51:27;25.70;79.30
1766;DHT22;880;52.452;8.656;2022-08-21T17:53:54;25.60;79.50
1766;DHT22;880;52.452;8.656;2022-08-21T17:56:22;25.60;80.00
1766;DHT22;880;52.452;8.656;2022-08-21T17:58:51;25.50;80.50
1766;DHT22;880;52.452;8.656;2022-08-21T18:01:19;25.40;80.60
1766;DHT22;880;52.452;8.656;2022-08-21T18:03:47;25.30;81.20
1766;DHT22;880;52.452;8.656;2022-08-21T18:06:15;25.30;81.60
1766;DHT22;880;52.452;8.656;2022-08-21T18:08:44;25.20;81.80
1766;DHT22;880;52.452;8.656;2022-08-21T18:11:14;25.20;82.50
1766;DHT22;880;52.452;8.656;2022-08-21T18:13:49;25.10;82.80
1766;DHT22;880;52.452;8.656;2022-08-21T18:16:18;25.00;83.20
1766;DHT22;880;52.452;8.656;2022-08-21T18:18:46;24.90;84.40